Terminal Aerodrome Forecast
Issued by NWS Burlington, VT

Home | Current Version | Previous Version | Text Only | Print | Product List | Glossary On
Versions: 1 2 3 4 5 6 7 8 9 10 11 12 13
000
FTUS41 KBTV 310524
TAFBTV
TAF
KBTV 310524Z 3106/0106 18004KT P6SM SCT060
     FM311200 21009G17KT P6SM SCT040
     FM311800 28010G18KT P6SM SCT040
     FM312300 31005KT P6SM SCT040=

USA.gov is the U.S. government's official web portal to all federal, state and local government web resources and services.